sensor_id;sensor_type;location;lat;lon;timestamp;temperature;humidity
13642;DHT22;6894;52.196;9.904;2023-07-31T00:00:13;16.50;99.90
13642;DHT22;6894;52.196;9.904;2023-07-31T00:02:41;16.50;99.90
13642;DHT22;6894;52.196;9.904;2023-07-31T00:05:08;16.50;99.90
13642;DHT22;6894;52.196;9.904;2023-07-31T00:07:37;16.50;99.90
13642;DHT22;6894;52.196;9.904;2023-07-31T00:10:04;16.50;99.90
13642;DHT22;6894;52.196;9.904;2023-07-31T00:12:30;16.50;99.90
13642;DHT22;6894;52.196;9.904;2023-07-31T00:14:58;16.60;99.90
13642;DHT22;6894;52.196;9.904;2023-07-31T00:17:25;16.50;99.90
13642;DHT22;6894;52.196;9.904;2023-07-31T00:19:51;16.50;99.90
13642;DHT22;6894;52.196;9.904;2023-07-31T00:22:18;16.10;99.90
13642;DHT22;6894;52.196;9.904;2023-07-31T00:24:46;16.50;99.90
13642;DHT22;6894;52.196;9.904;2023-07-31T00:27:13;16.50;99.90
13642;DHT22;6894;52.196;9.904;2023-07-31T00:29:40;16.50;99.90
13642;DHT22;6894;52.196;9.904;2023-07-31T00:32:07;16.50;99.90
13642;DHT22;6894;52.196;9.904;2023-07-31T00:34:34;16.60;99.90
13642;DHT22;6894;52.196;9.904;2023-07-31T00:37:00;16.50;99.90
13642;DHT22;6894;52.196;9.904;2023-07-31T00:39:29;16.50;99.90
13642;DHT22;6894;52.196;9.904;2023-07-31T00:41:57;16.50;99.90
13642;DHT22;6894;52.196;9.904;2023-07-31T00:44:24;16.50;99.90
13642;DHT22;6894;52.196;9.904;2023-07-31T00:46:51;16.50;99.90
13642;DHT22;6894;52.196;9.904;2023-07-31T00:49:18;16.50;99.90
13642;DHT22;6894;52.196;9.904;2023-07-31T00:51:45;16.50;99.90
13642;DHT22;6894;52.196;9.904;2023-07-31T00:54:12;16.50;99.90
13642;DHT22;6894;52.196;9.904;2023-07-31T00:56:40;16.50;99.90
13642;DHT22;6894;52.196;9.904;2023-07-31T00:59:08;16.50;99.90
13642;DHT22;6894;52.196;9.904;2023-07-31T01:01:35;16.40;99.90
13642;DHT22;6894;52.196;9.904;2023-07-31T01:04:02;16.50;99.90
13642;DHT22;6894;52.196;9.904;2023-07-31T01:06:35;16.40;99.90
13642;DHT22;6894;52.196;9.904;2023-07-31T01:09:06;16.50;99.90
13642;DHT22;6894;52.196;9.904;2023-07-31T01:11:38;16.40;99.90
13642;DHT22;6894;52.196;9.904;2023-07-31T01:14:05;16.40;99.90
13642;DHT22;6894;52.196;9.904;2023-07-31T01:16:33;16.40;99.90
13642;DHT22;6894;52.196;9.904;2023-07-31T01:19:00;16.40;99.90
13642;DHT22;6894;52.196;9.904;2023-07-31T01:21:56;16.40;99.90
13642;DHT22;6894;52.196;9.904;2023-07-31T01:24:29;16.30;99.90
13642;DHT22;6894;52.196;9.904;2023-07-31T01:27:04;16.20;99.90
13642;DHT22;6894;52.196;9.904;2023-07-31T01:29:36;16.10;99.90
13642;DHT22;6894;52.196;9.904;2023-07-31T01:32:06;16.00;99.90
13642;DHT22;6894;52.196;9.904;2023-07-31T01:34:35;16.00;99.90
13642;DHT22;6894;52.196;9.904;2023-07-31T01:37:03;16.00;99.90
13642;DHT22;6894;52.196;9.904;2023-07-31T01:39:30;16.00;99.90
13642;DHT22;6894;52.196;9.904;2023-07-31T01:41:58;15.90;99.90
13642;DHT22;6894;52.196;9.904;2023-07-31T01:44:25;15.90;99.90
13642;DHT22;6894;52.196;9.904;2023-07-31T01:46:51;15.90;99.90
13642;DHT22;6894;52.196;9.904;2023-07-31T01:49:18;15.90;99.90
13642;DHT22;6894;52.196;9.904;2023-07-31T01:51:45;15.90;99.90
13642;DHT22;6894;52.196;9.904;2023-07-31T01:54:12;15.90;99.90
13642;DHT22;6894;52.196;9.904;2023-07-31T01:56:38;15.80;99.90
13642;DHT22;6894;52.196;9.904;2023-07-31T01:59:06;15.80;99.90
13642;DHT22;6894;52.196;9.904;2023-07-31T02:01:33;15.70;99.90
13642;DHT22;6894;52.196;9.904;2023-07-31T02:04:00;15.70;99.90
13642;DHT22;6894;52.196;9.904;2023-07-31T02:06:27;15.70;99.90
13642;DHT22;6894;52.196;9.904;2023-07-31T02:08:53;15.80;99.90
13642;DHT22;6894;52.196;9.904;2023-07-31T02:11:20;15.80;99.90
13642;DHT22;6894;52.196;9.904;2023-07-31T02:13:47;15.80;99.90
13642;DHT22;6894;52.196;9.904;2023-07-31T02:16:15;15.80;99.90
13642;DHT22;6894;52.196;9.904;2023-07-31T02:18:41;15.70;99.90
13642;DHT22;6894;52.196;9.904;2023-07-31T02:21:08;15.80;99.90
13642;DHT22;6894;52.196;9.904;2023-07-31T02:23:35;15.80;99.90
13642;DHT22;6894;52.196;9.904;2023-07-31T02:26:02;15.80;99.90
13642;DHT22;6894;52.196;9.904;2023-07-31T02:28:28;15.80;99.90
13642;DHT22;6894;52.196;9.904;2023-07-31T02:30:55;15.80;99.90
13642;DHT22;6894;52.196;9.904;2023-07-31T02:33:23;15.80;99.90
13642;DHT22;6894;52.196;9.904;2023-07-31T02:35:50;15.90;99.90
13642;DHT22;6894;52.196;9.904;2023-07-31T02:38:17;15.90;99.90
13642;DHT22;6894;52.196;9.904;2023-07-31T02:40:44;15.90;99.90
13642;DHT22;6894;52.196;9.904;2023-07-31T02:43:11;15.90;99.90
13642;DHT22;6894;52.196;9.904;2023-07-31T02:45:38;15.90;99.90
13642;DHT22;6894;52.196;9.904;2023-07-31T02:48:05;15.90;99.90
13642;DHT22;6894;52.196;9.904;2023-07-31T02:50:33;15.90;99.90
13642;DHT22;6894;52.196;9.904;2023-07-31T02:52:59;15.90;99.90
13642;DHT22;6894;52.196;9.904;2023-07-31T02:55:26;15.90;99.90
13642;DHT22;6894;52.196;9.904;2023-07-31T02:57:53;16.00;99.90
13642;DHT22;6894;52.196;9.904;2023-07-31T03:00:20;16.00;99.90
13642;DHT22;6894;52.196;9.904;2023-07-31T03:02:46;16.00;99.90
13642;DHT22;6894;52.196;9.904;2023-07-31T03:05:13;16.00;99.90
13642;DHT22;6894;52.196;9.904;2023-07-31T03:07:41;16.00;99.90
13642;DHT22;6894;52.196;9.904;2023-07-31T03:10:09;16.10;99.90
13642;DHT22;6894;52.196;9.904;2023-07-31T03:12:35;16.10;99.90
13642;DHT22;6894;52.196;9.904;2023-07-31T03:15:02;16.00;99.90
13642;DHT22;6894;52.196;9.904;2023-07-31T03:17:29;16.00;99.90
13642;DHT22;6894;52.196;9.904;2023-07-31T03:19:56;16.00;99.90
13642;DHT22;6894;52.196;9.904;2023-07-31T03:22:23;16.00;99.90
13642;DHT22;6894;52.196;9.904;2023-07-31T03:24:51;16.10;99.90
13642;DHT22;6894;52.196;9.904;2023-07-31T03:27:18;16.10;99.90
13642;DHT22;6894;52.196;9.904;2023-07-31T03:29:45;16.10;99.90
13642;DHT22;6894;52.196;9.904;2023-07-31T03:32:12;16.00;99.90
13642;DHT22;6894;52.196;9.904;2023-07-31T03:34:38;16.00;99.90
13642;DHT22;6894;52.196;9.904;2023-07-31T03:37:05;16.00;99.90
13642;DHT22;6894;52.196;9.904;2023-07-31T03:39:34;16.00;99.90
13642;DHT22;6894;52.196;9.904;2023-07-31T03:42:03;16.00;99.90
13642;DHT22;6894;52.196;9.904;2023-07-31T03:44:30;15.90;99.90
13642;DHT22;6894;52.196;9.904;2023-07-31T03:46:56;15.90;99.90
13642;DHT22;6894;52.196;9.904;2023-07-31T03:49:23;15.90;99.90
13642;DHT22;6894;52.196;9.904;2023-07-31T03:51:50;15.90;99.90
13642;DHT22;6894;52.196;9.904;2023-07-31T03:54:17;15.90;99.90
13642;DHT22;6894;52.196;9.904;2023-07-31T03:56:43;16.00;99.90
13642;DHT22;6894;52.196;9.904;2023-07-31T03:59:11;16.00;99.90
13642;DHT22;6894;52.196;9.904;2023-07-31T04:01:38;15.90;99.90
13642;DHT22;6894;52.196;9.904;2023-07-31T04:04:05;15.80;99.90
13642;DHT22;6894;52.196;9.904;2023-07-31T04:06:31;15.80;99.90
13642;DHT22;6894;52.196;9.904;2023-07-31T04:08:58;15.70;99.90
13642;DHT22;6894;52.196;9.904;2023-07-31T04:11:25;15.60;99.90
13642;DHT22;6894;52.196;9.904;2023-07-31T04:13:52;15.60;99.90
13642;DHT22;6894;52.196;9.904;2023-07-31T04:16:20;15.50;99.90
13642;DHT22;6894;52.196;9.904;2023-07-31T04:18:46;15.50;99.90
13642;DHT22;6894;52.196;9.904;2023-07-31T04:21:13;15.40;99.90
13642;DHT22;6894;52.196;9.904;2023-07-31T04:23:40;15.50;99.90
13642;DHT22;6894;52.196;9.904;2023-07-31T04:26:07;15.40;99.90
13642;DHT22;6894;52.196;9.904;2023-07-31T04:28:33;15.50;99.90
13642;DHT22;6894;52.196;9.904;2023-07-31T04:31:00;15.50;99.90
13642;DHT22;6894;52.196;9.904;2023-07-31T04:33:28;15.50;99.90
13642;DHT22;6894;52.196;9.904;2023-07-31T04:35:55;15.50;99.90
13642;DHT22;6894;52.196;9.904;2023-07-31T04:38:22;15.50;99.90
13642;DHT22;6894;52.196;9.904;2023-07-31T04:40:49;15.40;99.90
13642;DHT22;6894;52.196;9.904;2023-07-31T04:43:15;15.50;99.90
13642;DHT22;6894;52.196;9.904;2023-07-31T04:45:45;15.50;99.90
13642;DHT22;6894;52.196;9.904;2023-07-31T04:48:12;15.50;99.90
13642;DHT22;6894;52.196;9.904;2023-07-31T04:50:41;15.50;99.90
13642;DHT22;6894;52.196;9.904;2023-07-31T04:53:07;15.50;99.90
13642;DHT22;6894;52.196;9.904;2023-07-31T04:55:34;15.50;99.90
13642;DHT22;6894;52.196;9.904;2023-07-31T04:58:01;15.50;99.90
13642;DHT22;6894;52.196;9.904;2023-07-31T05:00:28;15.50;99.90
13642;DHT22;6894;52.196;9.904;2023-07-31T05:02:55;15.60;99.90
13642;DHT22;6894;52.196;9.904;2023-07-31T05:05:22;15.70;99.90
13642;DHT22;6894;52.196;9.904;2023-07-31T05:07:50;15.70;99.90
13642;DHT22;6894;52.196;9.904;2023-07-31T05:10:17;15.80;99.90
13642;DHT22;6894;52.196;9.904;2023-07-31T05:12:43;15.80;99.90
13642;DHT22;6894;52.196;9.904;2023-07-31T05:15:10;15.80;99.90
13642;DHT22;6894;52.196;9.904;2023-07-31T05:17:37;15.90;99.90
13642;DHT22;6894;52.196;9.904;2023-07-31T05:20:04;15.90;99.90
13642;DHT22;6894;52.196;9.904;2023-07-31T05:22:31;16.00;99.90
13642;DHT22;6894;52.196;9.904;2023-07-31T05:24:59;16.00;99.90
13642;DHT22;6894;52.196;9.904;2023-07-31T05:27:26;16.00;99.90
13642;DHT22;6894;52.196;9.904;2023-07-31T05:29:53;16.00;99.90
13642;DHT22;6894;52.196;9.904;2023-07-31T05:32:20;16.10;99.90
13642;DHT22;6894;52.196;9.904;2023-07-31T05:34:46;16.10;99.90
13642;DHT22;6894;52.196;9.904;2023-07-31T05:37:13;16.10;99.90
13642;DHT22;6894;52.196;9.904;2023-07-31T05:39:40;16.10;99.90
13642;DHT22;6894;52.196;9.904;2023-07-31T05:42:08;16.20;99.90
13642;DHT22;6894;52.196;9.904;2023-07-31T05:44:35;16.20;99.90
13642;DHT22;6894;52.196;9.904;2023-07-31T05:47:02;16.10;99.90
13642;DHT22;6894;52.196;9.904;2023-07-31T05:49:29;16.20;99.90
13642;DHT22;6894;52.196;9.904;2023-07-31T05:51:56;16.20;99.90
13642;DHT22;6894;52.196;9.904;2023-07-31T05:54:22;16.20;99.90
13642;DHT22;6894;52.196;9.904;2023-07-31T05:56:49;16.30;99.90
13642;DHT22;6894;52.196;9.904;2023-07-31T05:59:17;16.30;99.90
13642;DHT22;6894;52.196;9.904;2023-07-31T06:01:44;16.30;99.90
13642;DHT22;6894;52.196;9.904;2023-07-31T06:04:11;16.20;99.90
13642;DHT22;6894;52.196;9.904;2023-07-31T06:06:38;16.30;99.90
13642;DHT22;6894;52.196;9.904;2023-07-31T06:09:05;16.30;99.90
13642;DHT22;6894;52.196;9.904;2023-07-31T06:11:32;16.30;99.90
13642;DHT22;6894;52.196;9.904;2023-07-31T06:13:59;16.30;99.90
13642;DHT22;6894;52.196;9.904;2023-07-31T06:16:27;16.20;99.90
13642;DHT22;6894;52.196;9.904;2023-07-31T06:18:54;16.20;99.90
13642;DHT22;6894;52.196;9.904;2023-07-31T06:21:20;16.30;99.90
13642;DHT22;6894;52.196;9.904;2023-07-31T06:23:47;16.30;99.90
13642;DHT22;6894;52.196;9.904;2023-07-31T06:26:14;16.30;99.90
13642;DHT22;6894;52.196;9.904;2023-07-31T06:28:41;16.30;99.90
13642;DHT22;6894;52.196;9.904;2023-07-31T06:31:08;16.40;99.90
13642;DHT22;6894;52.196;9.904;2023-07-31T06:33:36;16.50;99.90
13642;DHT22;6894;52.196;9.904;2023-07-31T06:36:02;16.40;99.90
13642;DHT22;6894;52.196;9.904;2023-07-31T06:38:29;16.40;99.90
13642;DHT22;6894;52.196;9.904;2023-07-31T06:40:56;16.40;99.90
13642;DHT22;6894;52.196;9.904;2023-07-31T06:43:23;16.30;99.90
13642;DHT22;6894;52.196;9.904;2023-07-31T06:45:49;16.30;99.90
13642;DHT22;6894;52.196;9.904;2023-07-31T06:48:17;16.30;99.90
13642;DHT22;6894;52.196;9.904;2023-07-31T06:50:45;16.30;99.90
13642;DHT22;6894;52.196;9.904;2023-07-31T06:53:11;16.30;99.90
13642;DHT22;6894;52.196;9.904;2023-07-31T06:55:38;16.30;99.90
13642;DHT22;6894;52.196;9.904;2023-07-31T06:58:05;16.30;99.90
13642;DHT22;6894;52.196;9.904;2023-07-31T07:00:32;16.40;99.90
13642;DHT22;6894;52.196;9.904;2023-07-31T07:02:59;16.40;99.90
13642;DHT22;6894;52.196;9.904;2023-07-31T07:05:25;16.40;99.90
13642;DHT22;6894;52.196;9.904;2023-07-31T07:07:53;16.40;99.90
13642;DHT22;6894;52.196;9.904;2023-07-31T07:10:20;16.50;99.90
13642;DHT22;6894;52.196;9.904;2023-07-31T07:12:48;16.50;99.90
13642;DHT22;6894;52.196;9.904;2023-07-31T07:15:15;16.50;99.90
13642;DHT22;6894;52.196;9.904;2023-07-31T07:17:42;16.50;99.90
13642;DHT22;6894;52.196;9.904;2023-07-31T07:20:09;16.50;99.90
13642;DHT22;6894;52.196;9.904;2023-07-31T07:22:36;16.50;99.90
13642;DHT22;6894;52.196;9.904;2023-07-31T07:25:05;16.60;99.90
13642;DHT22;6894;52.196;9.904;2023-07-31T07:27:32;16.60;99.90
13642;DHT22;6894;52.196;9.904;2023-07-31T07:29:59;16.60;99.90
13642;DHT22;6894;52.196;9.904;2023-07-31T07:32:26;16.70;99.90
13642;DHT22;6894;52.196;9.904;2023-07-31T07:34:53;16.70;99.90
13642;DHT22;6894;52.196;9.904;2023-07-31T07:37:20;16.80;99.90
13642;DHT22;6894;52.196;9.904;2023-07-31T07:39:46;16.80;99.90
13642;DHT22;6894;52.196;9.904;2023-07-31T07:42:14;16.80;99.90
13642;DHT22;6894;52.196;9.904;2023-07-31T07:44:41;16.80;99.90
13642;DHT22;6894;52.196;9.904;2023-07-31T07:47:08;16.80;99.90
13642;DHT22;6894;52.196;9.904;2023-07-31T07:49:35;16.80;99.90
13642;DHT22;6894;52.196;9.904;2023-07-31T07:52:02;16.90;99.90
13642;DHT22;6894;52.196;9.904;2023-07-31T07:54:30;16.90;99.90
13642;DHT22;6894;52.196;9.904;2023-07-31T07:56:57;16.90;99.90
13642;DHT22;6894;52.196;9.904;2023-07-31T07:59:25;16.90;99.90
13642;DHT22;6894;52.196;9.904;2023-07-31T08:01:51;16.90;99.90
13642;DHT22;6894;52.196;9.904;2023-07-31T08:04:18;16.90;99.90
13642;DHT22;6894;52.196;9.904;2023-07-31T08:06:45;16.90;99.90
13642;DHT22;6894;52.196;9.904;2023-07-31T08:09:12;16.80;99.90
13642;DHT22;6894;52.196;9.904;2023-07-31T08:11:39;16.80;99.90
13642;DHT22;6894;52.196;9.904;2023-07-31T08:14:05;16.80;99.90
13642;DHT22;6894;52.196;9.904;2023-07-31T08:16:33;16.80;99.90
13642;DHT22;6894;52.196;9.904;2023-07-31T08:19:00;16.90;99.90
13642;DHT22;6894;52.196;9.904;2023-07-31T08:21:27;16.80;99.90
13642;DHT22;6894;52.196;9.904;2023-07-31T08:23:54;16.90;99.90
13642;DHT22;6894;52.196;9.904;2023-07-31T08:26:21;16.90;99.90
13642;DHT22;6894;52.196;9.904;2023-07-31T08:28:48;16.90;99.90
13642;DHT22;6894;52.196;9.904;2023-07-31T08:31:14;17.00;99.90
13642;DHT22;6894;52.196;9.904;2023-07-31T08:33:42;17.10;99.90
13642;DHT22;6894;52.196;9.904;2023-07-31T08:36:09;17.00;99.90
13642;DHT22;6894;52.196;9.904;2023-07-31T08:38:36;17.10;99.90
13642;DHT22;6894;52.196;9.904;2023-07-31T08:41:03;17.00;99.90
13642;DHT22;6894;52.196;9.904;2023-07-31T08:43:31;17.10;99.90
13642;DHT22;6894;52.196;9.904;2023-07-31T08:45:59;17.10;99.90
13642;DHT22;6894;52.196;9.904;2023-07-31T08:48:26;17.20;99.90
13642;DHT22;6894;52.196;9.904;2023-07-31T08:50:55;17.20;99.90
13642;DHT22;6894;52.196;9.904;2023-07-31T08:53:22;17.60;99.90
13642;DHT22;6894;52.196;9.904;2023-07-31T08:55:49;17.10;99.90
13642;DHT22;6894;52.196;9.904;2023-07-31T08:58:17;17.00;99.90
13642;DHT22;6894;52.196;9.904;2023-07-31T09:00:46;16.90;99.90
13642;DHT22;6894;52.196;9.904;2023-07-31T09:03:14;16.80;99.90
13642;DHT22;6894;52.196;9.904;2023-07-31T09:05:43;16.80;99.90
13642;DHT22;6894;52.196;9.904;2023-07-31T09:08:14;16.70;99.90
13642;DHT22;6894;52.196;9.904;2023-07-31T09:10:42;16.70;99.90
13642;DHT22;6894;52.196;9.904;2023-07-31T09:13:09;16.70;99.90
13642;DHT22;6894;52.196;9.904;2023-07-31T09:15:36;16.70;99.90
13642;DHT22;6894;52.196;9.904;2023-07-31T09:18:04;16.70;99.90
13642;DHT22;6894;52.196;9.904;2023-07-31T09:20:32;16.80;99.90
13642;DHT22;6894;52.196;9.904;2023-07-31T09:23:06;16.90;99.90
13642;DHT22;6894;52.196;9.904;2023-07-31T09:25:36;16.90;99.90
13642;DHT22;6894;52.196;9.904;2023-07-31T09:28:05;16.90;99.90
13642;DHT22;6894;52.196;9.904;2023-07-31T09:30:44;17.00;99.90
13642;DHT22;6894;52.196;9.904;2023-07-31T09:33:11;17.00;99.90
13642;DHT22;6894;52.196;9.904;2023-07-31T09:35:39;17.00;99.90
13642;DHT22;6894;52.196;9.904;2023-07-31T09:38:08;17.00;99.90
13642;DHT22;6894;52.196;9.904;2023-07-31T09:40:38;16.90;99.90
13642;DHT22;6894;52.196;9.904;2023-07-31T09:43:07;17.00;99.90
13642;DHT22;6894;52.196;9.904;2023-07-31T09:45:36;17.00;99.90
13642;DHT22;6894;52.196;9.904;2023-07-31T09:48:06;17.00;99.90
13642;DHT22;6894;52.196;9.904;2023-07-31T09:50:36;17.00;99.90
13642;DHT22;6894;52.196;9.904;2023-07-31T09:53:03;17.00;99.90
13642;DHT22;6894;52.196;9.904;2023-07-31T09:55:30;17.10;99.90
13642;DHT22;6894;52.196;9.904;2023-07-31T09:58:00;17.00;99.90
13642;DHT22;6894;52.196;9.904;2023-07-31T10:00:30;17.10;99.90
13642;DHT22;6894;52.196;9.904;2023-07-31T10:02:59;17.10;99.90
13642;DHT22;6894;52.196;9.904;2023-07-31T10:05:29;17.20;99.90
13642;DHT22;6894;52.196;9.904;2023-07-31T10:07:57;17.30;99.90
13642;DHT22;6894;52.196;9.904;2023-07-31T10:10:25;17.40;99.90
13642;DHT22;6894;52.196;9.904;2023-07-31T10:12:53;17.50;99.90
13642;DHT22;6894;52.196;9.904;2023-07-31T10:15:21;17.60;99.90
13642;DHT22;6894;52.196;9.904;2023-07-31T10:17:49;17.70;99.90
13642;DHT22;6894;52.196;9.904;2023-07-31T10:20:17;17.80;99.90
13642;DHT22;6894;52.196;9.904;2023-07-31T10:22:44;17.90;99.90
13642;DHT22;6894;52.196;9.904;2023-07-31T10:25:12;17.90;99.90
13642;DHT22;6894;52.196;9.904;2023-07-31T10:27:39;17.90;99.90
13642;DHT22;6894;52.196;9.904;2023-07-31T10:30:10;17.90;99.90
13642;DHT22;6894;52.196;9.904;2023-07-31T10:32:41;18.00;99.90
13642;DHT22;6894;52.196;9.904;2023-07-31T10:35:09;18.00;99.90
13642;DHT22;6894;52.196;9.904;2023-07-31T10:37:37;18.10;99.90
13642;DHT22;6894;52.196;9.904;2023-07-31T10:40:06;18.10;99.90
13642;DHT22;6894;52.196;9.904;2023-07-31T10:42:34;18.20;99.90
13642;DHT22;6894;52.196;9.904;2023-07-31T10:45:04;18.30;99.90
13642;DHT22;6894;52.196;9.904;2023-07-31T10:47:31;18.40;99.90
13642;DHT22;6894;52.196;9.904;2023-07-31T10:50:19;18.50;99.90
13642;DHT22;6894;52.196;9.904;2023-07-31T10:52:47;18.90;99.90
13642;DHT22;6894;52.196;9.904;2023-07-31T10:55:23;19.10;99.90
13642;DHT22;6894;52.196;9.904;2023-07-31T10:57:50;19.20;99.90
13642;DHT22;6894;52.196;9.904;2023-07-31T11:00:18;19.40;99.90
13642;DHT22;6894;52.196;9.904;2023-07-31T11:02:56;19.70;99.90
13642;DHT22;6894;52.196;9.904;2023-07-31T11:05:52;19.80;99.90
13642;DHT22;6894;52.196;9.904;2023-07-31T11:08:22;19.90;99.90
13642;DHT22;6894;52.196;9.904;2023-07-31T11:10:50;19.80;99.90
13642;DHT22;6894;52.196;9.904;2023-07-31T11:13:17;19.80;99.90
13642;DHT22;6894;52.196;9.904;2023-07-31T11:15:44;19.70;99.90
13642;DHT22;6894;52.196;9.904;2023-07-31T11:18:11;19.70;99.90
13642;DHT22;6894;52.196;9.904;2023-07-31T11:20:38;19.70;99.90
13642;DHT22;6894;52.196;9.904;2023-07-31T11:23:08;19.70;99.90
13642;DHT22;6894;52.196;9.904;2023-07-31T11:25:36;19.70;99.90
13642;DHT22;6894;52.196;9.904;2023-07-31T11:28:07;19.60;99.90
13642;DHT22;6894;52.196;9.904;2023-07-31T11:30:34;19.50;99.90
13642;DHT22;6894;52.196;9.904;2023-07-31T11:33:02;19.50;99.90
13642;DHT22;6894;52.196;9.904;2023-07-31T11:35:30;19.50;99.90
13642;DHT22;6894;52.196;9.904;2023-07-31T11:37:58;19.40;99.90
13642;DHT22;6894;52.196;9.904;2023-07-31T11:40:26;19.40;99.90
13642;DHT22;6894;52.196;9.904;2023-07-31T11:42:56;19.50;99.90
13642;DHT22;6894;52.196;9.904;2023-07-31T11:45:25;19.40;99.90
13642;DHT22;6894;52.196;9.904;2023-07-31T11:47:54;19.50;99.90
13642;DHT22;6894;52.196;9.904;2023-07-31T11:50:21;19.50;99.90
13642;DHT22;6894;52.196;9.904;2023-07-31T11:52:52;19.60;99.90
13642;DHT22;6894;52.196;9.904;2023-07-31T11:55:20;19.50;99.90
13642;DHT22;6894;52.196;9.904;2023-07-31T11:57:48;19.50;99.90
13642;DHT22;6894;52.196;9.904;2023-07-31T12:00:15;19.70;99.90
13642;DHT22;6894;52.196;9.904;2023-07-31T12:02:43;19.70;99.90
13642;DHT22;6894;52.196;9.904;2023-07-31T12:05:13;19.80;99.90
13642;DHT22;6894;52.196;9.904;2023-07-31T12:07:48;19.90;99.90
13642;DHT22;6894;52.196;9.904;2023-07-31T12:10:25;19.90;99.90
13642;DHT22;6894;52.196;9.904;2023-07-31T12:13:01;19.80;99.90
13642;DHT22;6894;52.196;9.904;2023-07-31T12:15:38;19.90;99.90
13642;DHT22;6894;52.196;9.904;2023-07-31T12:18:07;19.90;99.90
13642;DHT22;6894;52.196;9.904;2023-07-31T12:20:35;19.80;99.90
13642;DHT22;6894;52.196;9.904;2023-07-31T12:23:02;19.70;99.90
13642;DHT22;6894;52.196;9.904;2023-07-31T12:25:33;19.60;99.90
13642;DHT22;6894;52.196;9.904;2023-07-31T12:28:06;19.40;99.90
13642;DHT22;6894;52.196;9.904;2023-07-31T12:30:38;19.40;99.90
13642;DHT22;6894;52.196;9.904;2023-07-31T12:33:06;19.40;99.90
13642;DHT22;6894;52.196;9.904;2023-07-31T12:35:37;19.40;99.90
13642;DHT22;6894;52.196;9.904;2023-07-31T12:38:05;19.40;99.90
13642;DHT22;6894;52.196;9.904;2023-07-31T12:40:32;19.30;99.90
13642;DHT22;6894;52.196;9.904;2023-07-31T12:43:01;19.20;99.90
13642;DHT22;6894;52.196;9.904;2023-07-31T12:45:30;19.10;99.90
13642;DHT22;6894;52.196;9.904;2023-07-31T12:47:57;19.10;99.90
13642;DHT22;6894;52.196;9.904;2023-07-31T12:50:24;19.00;99.90
13642;DHT22;6894;52.196;9.904;2023-07-31T12:52:51;18.90;99.90
13642;DHT22;6894;52.196;9.904;2023-07-31T12:55:18;18.80;99.90
13642;DHT22;6894;52.196;9.904;2023-07-31T12:57:45;18.90;99.90
13642;DHT22;6894;52.196;9.904;2023-07-31T13:00:13;18.90;99.90
13642;DHT22;6894;52.196;9.904;2023-07-31T13:02:41;18.90;99.90
13642;DHT22;6894;52.196;9.904;2023-07-31T13:05:08;19.00;99.90
13642;DHT22;6894;52.196;9.904;2023-07-31T13:07:35;19.10;99.90
13642;DHT22;6894;52.196;9.904;2023-07-31T13:10:02;19.20;99.90
13642;DHT22;6894;52.196;9.904;2023-07-31T13:12:28;19.20;99.90
13642;DHT22;6894;52.196;9.904;2023-07-31T13:14:55;19.30;99.90
13642;DHT22;6894;52.196;9.904;2023-07-31T13:17:22;19.30;99.90
13642;DHT22;6894;52.196;9.904;2023-07-31T13:19:50;19.20;99.90
13642;DHT22;6894;52.196;9.904;2023-07-31T13:22:17;19.20;99.90
13642;DHT22;6894;52.196;9.904;2023-07-31T13:24:43;19.20;99.90
13642;DHT22;6894;52.196;9.904;2023-07-31T13:27:10;19.20;99.90
13642;DHT22;6894;52.196;9.904;2023-07-31T13:29:37;19.10;99.90
13642;DHT22;6894;52.196;9.904;2023-07-31T13:32:04;19.10;99.90
13642;DHT22;6894;52.196;9.904;2023-07-31T13:34:31;19.10;99.90
13642;DHT22;6894;52.196;9.904;2023-07-31T13:36:59;19.10;99.90
13642;DHT22;6894;52.196;9.904;2023-07-31T13:39:26;19.20;99.90
13642;DHT22;6894;52.196;9.904;2023-07-31T13:41:53;19.20;99.90
13642;DHT22;6894;52.196;9.904;2023-07-31T13:44:20;19.10;99.90
13642;DHT22;6894;52.196;9.904;2023-07-31T13:46:47;19.20;99.90
13642;DHT22;6894;52.196;9.904;2023-07-31T13:49:13;19.20;99.90
13642;DHT22;6894;52.196;9.904;2023-07-31T13:51:40;19.10;99.90
13642;DHT22;6894;52.196;9.904;2023-07-31T13:54:09;19.20;99.90
13642;DHT22;6894;52.196;9.904;2023-07-31T13:56:37;19.10;99.90
13642;DHT22;6894;52.196;9.904;2023-07-31T13:59:04;19.10;99.90
13642;DHT22;6894;52.196;9.904;2023-07-31T14:01:31;19.10;99.90
13642;DHT22;6894;52.196;9.904;2023-07-31T14:03:57;19.20;99.90
13642;DHT22;6894;52.196;9.904;2023-07-31T14:06:24;19.20;99.90
13642;DHT22;6894;52.196;9.904;2023-07-31T14:08:51;19.20;99.90
13642;DHT22;6894;52.196;9.904;2023-07-31T14:11:19;19.20;99.90
13642;DHT22;6894;52.196;9.904;2023-07-31T14:13:46;19.20;99.90
13642;DHT22;6894;52.196;9.904;2023-07-31T14:16:12;19.20;99.90
13642;DHT22;6894;52.196;9.904;2023-07-31T14:18:39;19.30;99.90
13642;DHT22;6894;52.196;9.904;2023-07-31T14:21:06;19.30;99.90
13642;DHT22;6894;52.196;9.904;2023-07-31T14:23:34;19.40;99.90
13642;DHT22;6894;52.196;9.904;2023-07-31T14:26:00;19.50;99.90
13642;DHT22;6894;52.196;9.904;2023-07-31T14:28:28;19.60;99.90
13642;DHT22;6894;52.196;9.904;2023-07-31T14:30:55;19.50;99.90
13642;DHT22;6894;52.196;9.904;2023-07-31T14:33:22;19.60;99.90
13642;DHT22;6894;52.196;9.904;2023-07-31T14:35:49;19.80;99.90
13642;DHT22;6894;52.196;9.904;2023-07-31T14:38:16;19.80;99.90
13642;DHT22;6894;52.196;9.904;2023-07-31T14:40:43;19.80;99.90
13642;DHT22;6894;52.196;9.904;2023-07-31T14:43:10;19.90;99.90
13642;DHT22;6894;52.196;9.904;2023-07-31T14:45:38;19.90;99.90
13642;DHT22;6894;52.196;9.904;2023-07-31T14:48:05;19.90;99.90
13642;DHT22;6894;52.196;9.904;2023-07-31T14:50:32;20.00;99.90
13642;DHT22;6894;52.196;9.904;2023-07-31T14:52:59;19.90;99.90
13642;DHT22;6894;52.196;9.904;2023-07-31T14:55:26;19.80;99.90
13642;DHT22;6894;52.196;9.904;2023-07-31T14:57:52;19.90;99.90
13642;DHT22;6894;52.196;9.904;2023-07-31T15:00:19;19.90;99.90
13642;DHT22;6894;52.196;9.904;2023-07-31T15:02:48;19.90;99.90
13642;DHT22;6894;52.196;9.904;2023-07-31T15:05:14;20.00;99.90
13642;DHT22;6894;52.196;9.904;2023-07-31T15:07:41;20.10;99.90
13642;DHT22;6894;52.196;9.904;2023-07-31T15:10:08;20.10;99.90
13642;DHT22;6894;52.196;9.904;2023-07-31T15:12:35;20.10;99.90
13642;DHT22;6894;52.196;9.904;2023-07-31T15:15:03;20.00;99.90
13642;DHT22;6894;52.196;9.904;2023-07-31T15:17:30;20.00;99.90
13642;DHT22;6894;52.196;9.904;2023-07-31T15:20:00;20.00;99.90
13642;DHT22;6894;52.196;9.904;2023-07-31T15:22:26;20.00;99.90
13642;DHT22;6894;52.196;9.904;2023-07-31T15:24:53;20.00;99.90
13642;DHT22;6894;52.196;9.904;2023-07-31T15:27:20;20.00;99.90
13642;DHT22;6894;52.196;9.904;2023-07-31T15:29:47;20.00;99.90
13642;DHT22;6894;52.196;9.904;2023-07-31T15:32:13;20.00;99.90
13642;DHT22;6894;52.196;9.904;2023-07-31T15:34:40;20.00;99.90
13642;DHT22;6894;52.196;9.904;2023-07-31T15:37:08;20.10;99.90
13642;DHT22;6894;52.196;9.904;2023-07-31T15:39:35;20.20;99.90
13642;DHT22;6894;52.196;9.904;2023-07-31T15:42:02;20.20;99.90
13642;DHT22;6894;52.196;9.904;2023-07-31T15:44:29;20.20;99.90
13642;DHT22;6894;52.196;9.904;2023-07-31T15:46:55;20.20;99.90